sensor_id;sensor_type;location;lat;lon;timestamp;P1;durP1;ratioP1;P2;durP2;ratioP2
6434;SDS011;3250;42.694;23.278;2023-04-24T00:00:14;9.57;;;6.27;;
6434;SDS011;3250;42.694;23.278;2023-04-24T00:02:42;15.80;;;7.33;;
6434;SDS011;3250;42.694;23.278;2023-04-24T00:05:14;12.45;;;7.22;;
6434;SDS011;3250;42.694;23.278;2023-04-24T00:07:40;14.13;;;7.75;;
6434;SDS011;3250;42.694;23.278;2023-04-24T00:10:07;9.77;;;6.97;;
6434;SDS011;3250;42.694;23.278;2023-04-24T00:12:33;10.13;;;6.37;;
6434;SDS011;3250;42.694;23.278;2023-04-24T00:14:58;32.17;;;7.90;;
6434;SDS011;3250;42.694;23.278;2023-04-24T00:17:24;14.67;;;7.03;;
6434;SDS011;3250;42.694;23.278;2023-04-24T00:19:50;9.30;;;6.93;;
6434;SDS011;3250;42.694;23.278;2023-04-24T00:22:16;9.60;;;6.90;;
6434;SDS011;3250;42.694;23.278;2023-04-24T00:24:42;15.60;;;8.43;;
6434;SDS011;3250;42.694;23.278;2023-04-24T00:27:08;9.30;;;6.47;;
6434;SDS011;3250;42.694;23.278;2023-04-24T00:29:34;13.43;;;8.65;;
6434;SDS011;3250;42.694;23.278;2023-04-24T00:31:59;18.47;;;6.80;;
6434;SDS011;3250;42.694;23.278;2023-04-24T00:34:25;14.20;;;7.20;;
6434;SDS011;3250;42.694;23.278;2023-04-24T00:36:50;15.03;;;6.43;;
6434;SDS011;3250;42.694;23.278;2023-04-24T00:39:18;10.33;;;7.20;;
6434;SDS011;3250;42.694;23.278;2023-04-24T00:41:44;10.67;;;7.37;;
6434;SDS011;3250;42.694;23.278;2023-04-24T00:44:10;11.00;;;7.37;;
6434;SDS011;3250;42.694;23.278;2023-04-24T00:46:36;15.07;;;7.43;;
6434;SDS011;3250;42.694;23.278;2023-04-24T00:49:01;15.23;;;7.33;;
6434;SDS011;3250;42.694;23.278;2023-04-24T00:51:27;13.00;;;7.20;;
6434;SDS011;3250;42.694;23.278;2023-04-24T00:53:53;8.50;;;6.27;;
6434;SDS011;3250;42.694;23.278;2023-04-24T00:56:18;11.03;;;6.60;;
6434;SDS011;3250;42.694;23.278;2023-04-24T00:58:44;10.90;;;6.10;;
6434;SDS011;3250;42.694;23.278;2023-04-24T01:01:10;16.07;;;8.03;;
6434;SDS011;3250;42.694;23.278;2023-04-24T01:03:36;13.33;;;7.10;;
6434;SDS011;3250;42.694;23.278;2023-04-24T01:06:03;17.03;;;8.10;;
6434;SDS011;3250;42.694;23.278;2023-04-24T01:08:30;9.67;;;6.87;;
6434;SDS011;3250;42.694;23.278;2023-04-24T01:10:56;9.97;;;6.03;;
6434;SDS011;3250;42.694;23.278;2023-04-24T01:13:22;9.43;;;5.53;;
6434;SDS011;3250;42.694;23.278;2023-04-24T01:15:48;10.73;;;5.70;;
6434;SDS011;3250;42.694;23.278;2023-04-24T01:18:13;14.63;;;6.25;;
6434;SDS011;3250;42.694;23.278;2023-04-24T01:20:40;15.68;;;9.55;;
6434;SDS011;3250;42.694;23.278;2023-04-24T01:23:07;15.93;;;9.10;;
6434;SDS011;3250;42.694;23.278;2023-04-24T01:25:33;15.80;;;7.97;;
6434;SDS011;3250;42.694;23.278;2023-04-24T01:27:59;12.87;;;7.97;;
6434;SDS011;3250;42.694;23.278;2023-04-24T01:30:28;11.60;;;7.13;;
6434;SDS011;3250;42.694;23.278;2023-04-24T01:32:56;14.07;;;8.70;;
6434;SDS011;3250;42.694;23.278;2023-04-24T01:35:21;8.30;;;6.07;;
6434;SDS011;3250;42.694;23.278;2023-04-24T01:37:47;13.13;;;6.40;;
6434;SDS011;3250;42.694;23.278;2023-04-24T01:40:12;10.00;;;6.43;;
6434;SDS011;3250;42.694;23.278;2023-04-24T01:42:38;10.60;;;7.00;;
6434;SDS011;3250;42.694;23.278;2023-04-24T01:45:06;16.63;;;7.03;;
6434;SDS011;3250;42.694;23.278;2023-04-24T01:47:36;12.50;;;7.30;;
6434;SDS011;3250;42.694;23.278;2023-04-24T01:50:02;8.30;;;5.97;;
6434;SDS011;3250;42.694;23.278;2023-04-24T01:52:28;7.60;;;4.87;;
6434;SDS011;3250;42.694;23.278;2023-04-24T01:54:56;9.47;;;4.73;;
6434;SDS011;3250;42.694;23.278;2023-04-24T01:57:21;8.50;;;5.30;;
6434;SDS011;3250;42.694;23.278;2023-04-24T01:59:47;10.23;;;5.03;;
6434;SDS011;3250;42.694;23.278;2023-04-24T02:02:13;6.03;;;4.73;;
6434;SDS011;3250;42.694;23.278;2023-04-24T02:04:39;8.93;;;4.70;;
6434;SDS011;3250;42.694;23.278;2023-04-24T02:07:04;11.63;;;4.73;;
6434;SDS011;3250;42.694;23.278;2023-04-24T02:09:30;7.63;;;4.30;;
6434;SDS011;3250;42.694;23.278;2023-04-24T02:11:55;10.27;;;5.27;;
6434;SDS011;3250;42.694;23.278;2023-04-24T02:14:21;8.57;;;5.33;;
6434;SDS011;3250;42.694;23.278;2023-04-24T02:16:46;17.53;;;5.43;;
6434;SDS011;3250;42.694;23.278;2023-04-24T02:19:12;7.60;;;5.30;;
6434;SDS011;3250;42.694;23.278;2023-04-24T02:21:37;8.50;;;5.37;;
6434;SDS011;3250;42.694;23.278;2023-04-24T02:24:03;5.83;;;5.23;;
6434;SDS011;3250;42.694;23.278;2023-04-24T02:26:28;7.00;;;5.60;;
6434;SDS011;3250;42.694;23.278;2023-04-24T02:28:54;14.30;;;5.37;;
6434;SDS011;3250;42.694;23.278;2023-04-24T02:31:19;9.70;;;5.63;;
6434;SDS011;3250;42.694;23.278;2023-04-24T02:33:44;9.47;;;5.53;;
6434;SDS011;3250;42.694;23.278;2023-04-24T02:36:10;12.87;;;6.63;;
6434;SDS011;3250;42.694;23.278;2023-04-24T02:38:35;10.20;;;7.23;;
6434;SDS011;3250;42.694;23.278;2023-04-24T02:41:01;10.43;;;6.97;;
6434;SDS011;3250;42.694;23.278;2023-04-24T02:43:27;12.43;;;7.40;;
6434;SDS011;3250;42.694;23.278;2023-04-24T02:45:53;13.47;;;6.87;;
6434;SDS011;3250;42.694;23.278;2023-04-24T02:48:18;13.00;;;8.17;;
6434;SDS011;3250;42.694;23.278;2023-04-24T02:50:45;11.13;;;7.60;;
6434;SDS011;3250;42.694;23.278;2023-04-24T02:53:11;14.53;;;7.77;;
6434;SDS011;3250;42.694;23.278;2023-04-24T02:55:36;15.40;;;7.97;;
6434;SDS011;3250;42.694;23.278;2023-04-24T02:58:02;15.70;;;8.33;;
6434;SDS011;3250;42.694;23.278;2023-04-24T03:00:27;11.87;;;7.47;;
6434;SDS011;3250;42.694;23.278;2023-04-24T03:02:53;17.10;;;8.50;;
6434;SDS011;3250;42.694;23.278;2023-04-24T03:05:18;11.93;;;7.43;;
6434;SDS011;3250;42.694;23.278;2023-04-24T03:07:44;12.13;;;8.07;;
6434;SDS011;3250;42.694;23.278;2023-04-24T03:10:10;10.73;;;7.53;;
6434;SDS011;3250;42.694;23.278;2023-04-24T03:12:36;11.70;;;8.40;;
6434;SDS011;3250;42.694;23.278;2023-04-24T03:15:01;10.80;;;7.53;;
6434;SDS011;3250;42.694;23.278;2023-04-24T03:17:26;11.40;;;7.97;;
6434;SDS011;3250;42.694;23.278;2023-04-24T03:19:52;11.47;;;7.67;;
6434;SDS011;3250;42.694;23.278;2023-04-24T03:22:17;14.27;;;9.07;;
6434;SDS011;3250;42.694;23.278;2023-04-24T03:24:43;13.13;;;7.73;;
6434;SDS011;3250;42.694;23.278;2023-04-24T03:27:08;11.20;;;8.00;;
6434;SDS011;3250;42.694;23.278;2023-04-24T03:29:33;14.33;;;7.20;;
6434;SDS011;3250;42.694;23.278;2023-04-24T03:31:59;14.03;;;8.17;;
6434;SDS011;3250;42.694;23.278;2023-04-24T03:34:24;18.70;;;10.17;;
6434;SDS011;3250;42.694;23.278;2023-04-24T03:36:50;14.23;;;7.80;;
6434;SDS011;3250;42.694;23.278;2023-04-24T03:39:15;13.80;;;8.20;;
6434;SDS011;3250;42.694;23.278;2023-04-24T03:41:40;17.37;;;9.00;;
6434;SDS011;3250;42.694;23.278;2023-04-24T03:44:06;17.80;;;10.07;;
6434;SDS011;3250;42.694;23.278;2023-04-24T03:46:31;15.43;;;9.00;;
6434;SDS011;3250;42.694;23.278;2023-04-24T03:48:57;18.70;;;10.23;;
6434;SDS011;3250;42.694;23.278;2023-04-24T03:51:22;17.50;;;9.40;;
6434;SDS011;3250;42.694;23.278;2023-04-24T03:53:48;17.50;;;9.90;;
6434;SDS011;3250;42.694;23.278;2023-04-24T03:56:14;23.20;;;10.67;;
6434;SDS011;3250;42.694;23.278;2023-04-24T03:58:39;14.60;;;9.73;;
6434;SDS011;3250;42.694;23.278;2023-04-24T04:01:05;15.43;;;10.00;;
6434;SDS011;3250;42.694;23.278;2023-04-24T04:03:31;18.97;;;11.13;;
6434;SDS011;3250;42.694;23.278;2023-04-24T04:05:56;20.00;;;10.73;;
6434;SDS011;3250;42.694;23.278;2023-04-24T04:08:22;15.57;;;10.40;;
6434;SDS011;3250;42.694;23.278;2023-04-24T04:10:47;20.57;;;11.13;;
6434;SDS011;3250;42.694;23.278;2023-04-24T04:13:12;21.63;;;10.30;;
6434;SDS011;3250;42.694;23.278;2023-04-24T04:15:39;17.23;;;10.10;;
6434;SDS011;3250;42.694;23.278;2023-04-24T04:18:04;19.90;;;11.07;;
6434;SDS011;3250;42.694;23.278;2023-04-24T04:20:30;25.80;;;11.07;;
6434;SDS011;3250;42.694;23.278;2023-04-24T04:22:55;18.97;;;11.50;;
6434;SDS011;3250;42.694;23.278;2023-04-24T04:25:21;23.93;;;12.00;;
6434;SDS011;3250;42.694;23.278;2023-04-24T04:27:46;19.23;;;11.53;;
6434;SDS011;3250;42.694;23.278;2023-04-24T04:30:16;18.53;;;10.97;;
6434;SDS011;3250;42.694;23.278;2023-04-24T04:32:41;21.33;;;12.33;;
6434;SDS011;3250;42.694;23.278;2023-04-24T04:35:07;24.40;;;11.90;;
6434;SDS011;3250;42.694;23.278;2023-04-24T04:37:32;23.73;;;11.83;;
6434;SDS011;3250;42.694;23.278;2023-04-24T04:39:58;17.30;;;11.43;;
6434;SDS011;3250;42.694;23.278;2023-04-24T04:42:25;23.07;;;12.20;;
6434;SDS011;3250;42.694;23.278;2023-04-24T04:44:52;22.53;;;11.03;;
6434;SDS011;3250;42.694;23.278;2023-04-24T04:47:17;24.80;;;12.50;;
6434;SDS011;3250;42.694;23.278;2023-04-24T04:49:46;26.27;;;12.43;;
6434;SDS011;3250;42.694;23.278;2023-04-24T04:52:12;23.23;;;11.73;;
6434;SDS011;3250;42.694;23.278;2023-04-24T04:54:37;27.43;;;12.63;;
6434;SDS011;3250;42.694;23.278;2023-04-24T04:57:02;27.43;;;13.87;;
6434;SDS011;3250;42.694;23.278;2023-04-24T04:59:28;21.83;;;10.90;;
6434;SDS011;3250;42.694;23.278;2023-04-24T05:01:54;20.53;;;12.20;;
6434;SDS011;3250;42.694;23.278;2023-04-24T05:04:19;28.93;;;11.17;;
6434;SDS011;3250;42.694;23.278;2023-04-24T05:06:44;26.73;;;11.70;;
6434;SDS011;3250;42.694;23.278;2023-04-24T05:09:12;19.63;;;9.73;;
6434;SDS011;3250;42.694;23.278;2023-04-24T05:11:37;15.70;;;8.77;;
6434;SDS011;3250;42.694;23.278;2023-04-24T05:14:03;13.13;;;8.07;;
6434;SDS011;3250;42.694;23.278;2023-04-24T05:16:28;11.17;;;7.93;;
6434;SDS011;3250;42.694;23.278;2023-04-24T05:18:53;18.23;;;8.80;;
6434;SDS011;3250;42.694;23.278;2023-04-24T05:21:19;18.93;;;8.53;;
6434;SDS011;3250;42.694;23.278;2023-04-24T05:23:44;16.97;;;7.70;;
6434;SDS011;3250;42.694;23.278;2023-04-24T05:26:10;17.57;;;8.60;;
6434;SDS011;3250;42.694;23.278;2023-04-24T05:28:35;13.73;;;8.70;;
6434;SDS011;3250;42.694;23.278;2023-04-24T05:31:01;17.13;;;8.00;;
6434;SDS011;3250;42.694;23.278;2023-04-24T05:33:28;28.07;;;8.10;;
6434;SDS011;3250;42.694;23.278;2023-04-24T05:35:53;18.17;;;8.13;;
6434;SDS011;3250;42.694;23.278;2023-04-24T05:38:19;17.20;;;6.97;;
6434;SDS011;3250;42.694;23.278;2023-04-24T05:40:47;13.70;;;5.60;;
6434;SDS011;3250;42.694;23.278;2023-04-24T05:43:13;9.50;;;5.70;;
6434;SDS011;3250;42.694;23.278;2023-04-24T05:45:38;10.63;;;5.30;;
6434;SDS011;3250;42.694;23.278;2023-04-24T05:48:04;11.13;;;5.60;;
6434;SDS011;3250;42.694;23.278;2023-04-24T05:50:30;14.47;;;5.93;;
6434;SDS011;3250;42.694;23.278;2023-04-24T05:52:56;7.23;;;4.37;;
6434;SDS011;3250;42.694;23.278;2023-04-24T05:55:23;12.57;;;4.70;;
6434;SDS011;3250;42.694;23.278;2023-04-24T05:57:49;9.85;;;4.25;;
6434;SDS011;3250;42.694;23.278;2023-04-24T06:00:15;7.07;;;4.45;;
6434;SDS011;3250;42.694;23.278;2023-04-24T06:02:40;10.52;;;5.70;;
6434;SDS011;3250;42.694;23.278;2023-04-24T06:05:06;7.15;;;5.22;;
6434;SDS011;3250;42.694;23.278;2023-04-24T06:07:33;9.05;;;5.20;;
6434;SDS011;3250;42.694;23.278;2023-04-24T06:09:58;8.70;;;5.15;;
6434;SDS011;3250;42.694;23.278;2023-04-24T06:12:24;7.60;;;4.50;;
6434;SDS011;3250;42.694;23.278;2023-04-24T06:14:50;11.07;;;4.57;;
6434;SDS011;3250;42.694;23.278;2023-04-24T06:17:16;9.75;;;4.90;;
6434;SDS011;3250;42.694;23.278;2023-04-24T06:19:42;10.45;;;5.10;;
6434;SDS011;3250;42.694;23.278;2023-04-24T06:22:07;10.65;;;5.28;;
6434;SDS011;3250;42.694;23.278;2023-04-24T06:24:33;13.65;;;5.25;;
6434;SDS011;3250;42.694;23.278;2023-04-24T06:26:59;10.25;;;5.13;;
6434;SDS011;3250;42.694;23.278;2023-04-24T06:29:25;9.85;;;5.25;;
6434;SDS011;3250;42.694;23.278;2023-04-24T06:31:50;9.07;;;5.38;;
6434;SDS011;3250;42.694;23.278;2023-04-24T06:34:16;10.27;;;5.85;;
6434;SDS011;3250;42.694;23.278;2023-04-24T06:36:41;7.80;;;5.18;;
6434;SDS011;3250;42.694;23.278;2023-04-24T06:39:07;12.07;;;4.93;;
6434;SDS011;3250;42.694;23.278;2023-04-24T06:41:32;6.65;;;4.88;;
6434;SDS011;3250;42.694;23.278;2023-04-24T06:43:57;8.18;;;4.90;;
6434;SDS011;3250;42.694;23.278;2023-04-24T06:46:23;8.13;;;4.68;;
6434;SDS011;3250;42.694;23.278;2023-04-24T06:48:51;10.15;;;4.93;;
6434;SDS011;3250;42.694;23.278;2023-04-24T06:51:17;12.85;;;5.13;;
6434;SDS011;3250;42.694;23.278;2023-04-24T06:53:43;8.73;;;4.57;;
6434;SDS011;3250;42.694;23.278;2023-04-24T06:56:09;8.35;;;5.03;;
6434;SDS011;3250;42.694;23.278;2023-04-24T06:58:34;11.57;;;4.47;;
6434;SDS011;3250;42.694;23.278;2023-04-24T07:01:00;10.05;;;4.68;;
6434;SDS011;3250;42.694;23.278;2023-04-24T07:03:25;8.77;;;5.10;;
6434;SDS011;3250;42.694;23.278;2023-04-24T07:05:50;14.10;;;5.20;;
6434;SDS011;3250;42.694;23.278;2023-04-24T07:08:16;10.50;;;5.15;;
6434;SDS011;3250;42.694;23.278;2023-04-24T07:10:42;6.22;;;4.22;;
6434;SDS011;3250;42.694;23.278;2023-04-24T07:13:09;12.02;;;5.43;;
6434;SDS011;3250;42.694;23.278;2023-04-24T07:15:34;11.23;;;5.47;;
6434;SDS011;3250;42.694;23.278;2023-04-24T07:18:00;9.02;;;5.38;;
6434;SDS011;3250;42.694;23.278;2023-04-24T07:20:25;9.90;;;4.32;;
6434;SDS011;3250;42.694;23.278;2023-04-24T07:22:51;9.77;;;4.78;;
6434;SDS011;3250;42.694;23.278;2023-04-24T07:25:18;9.50;;;4.28;;
6434;SDS011;3250;42.694;23.278;2023-04-24T07:27:44;11.80;;;5.20;;
6434;SDS011;3250;42.694;23.278;2023-04-24T07:30:10;9.00;;;4.68;;
6434;SDS011;3250;42.694;23.278;2023-04-24T07:32:35;10.57;;;5.22;;
6434;SDS011;3250;42.694;23.278;2023-04-24T07:35:01;7.20;;;4.60;;
6434;SDS011;3250;42.694;23.278;2023-04-24T07:37:27;8.88;;;5.55;;
6434;SDS011;3250;42.694;23.278;2023-04-24T07:39:53;10.40;;;5.38;;
6434;SDS011;3250;42.694;23.278;2023-04-24T07:42:19;12.68;;;5.07;;
6434;SDS011;3250;42.694;23.278;2023-04-24T07:44:45;8.85;;;4.88;;
6434;SDS011;3250;42.694;23.278;2023-04-24T07:47:12;7.03;;;4.63;;
6434;SDS011;3250;42.694;23.278;2023-04-24T07:49:39;10.43;;;6.13;;
6434;SDS011;3250;42.694;23.278;2023-04-24T07:52:06;13.18;;;6.50;;
6434;SDS011;3250;42.694;23.278;2023-04-24T07:54:32;11.50;;;5.95;;
6434;SDS011;3250;42.694;23.278;2023-04-24T07:56:57;11.98;;;6.10;;
6434;SDS011;3250;42.694;23.278;2023-04-24T07:59:22;15.10;;;6.25;;
6434;SDS011;3250;42.694;23.278;2023-04-24T08:01:48;13.40;;;5.00;;
6434;SDS011;3250;42.694;23.278;2023-04-24T08:04:14;14.00;;;5.00;;
6434;SDS011;3250;42.694;23.278;2023-04-24T08:06:39;8.13;;;4.78;;
6434;SDS011;3250;42.694;23.278;2023-04-24T08:09:05;11.05;;;4.53;;
6434;SDS011;3250;42.694;23.278;2023-04-24T08:11:31;10.45;;;4.25;;
6434;SDS011;3250;42.694;23.278;2023-04-24T08:13:56;9.25;;;4.20;;
6434;SDS011;3250;42.694;23.278;2023-04-24T08:16:22;10.43;;;5.15;;
6434;SDS011;3250;42.694;23.278;2023-04-24T08:18:51;5.57;;;4.45;;
6434;SDS011;3250;42.694;23.278;2023-04-24T08:21:16;8.30;;;4.55;;
6434;SDS011;3250;42.694;23.278;2023-04-24T08:23:43;9.18;;;5.03;;
6434;SDS011;3250;42.694;23.278;2023-04-24T08:26:10;10.45;;;5.38;;
6434;SDS011;3250;42.694;23.278;2023-04-24T08:28:36;11.93;;;6.03;;
6434;SDS011;3250;42.694;23.278;2023-04-24T08:31:02;11.65;;;5.18;;
6434;SDS011;3250;42.694;23.278;2023-04-24T08:33:27;8.43;;;4.72;;
6434;SDS011;3250;42.694;23.278;2023-04-24T08:35:59;6.57;;;4.97;;
6434;SDS011;3250;42.694;23.278;2023-04-24T08:38:25;7.10;;;5.20;;
6434;SDS011;3250;42.694;23.278;2023-04-24T08:40:51;10.75;;;5.38;;
6434;SDS011;3250;42.694;23.278;2023-04-24T08:43:17;6.82;;;4.60;;
6434;SDS011;3250;42.694;23.278;2023-04-24T08:45:43;5.07;;;4.57;;
6434;SDS011;3250;42.694;23.278;2023-04-24T08:48:08;6.80;;;5.07;;
6434;SDS011;3250;42.694;23.278;2023-04-24T08:50:35;7.80;;;5.05;;
6434;SDS011;3250;42.694;23.278;2023-04-24T08:53:01;8.00;;;4.68;;
6434;SDS011;3250;42.694;23.278;2023-04-24T08:55:27;8.15;;;5.07;;
6434;SDS011;3250;42.694;23.278;2023-04-24T08:57:55;9.98;;;5.38;;
6434;SDS011;3250;42.694;23.278;2023-04-24T09:00:21;8.98;;;5.40;;
6434;SDS011;3250;42.694;23.278;2023-04-24T09:02:48;8.20;;;4.78;;
6434;SDS011;3250;42.694;23.278;2023-04-24T09:05:16;8.63;;;5.00;;
6434;SDS011;3250;42.694;23.278;2023-04-24T09:07:45;8.88;;;4.38;;
6434;SDS011;3250;42.694;23.278;2023-04-24T09:10:13;8.40;;;5.20;;
6434;SDS011;3250;42.694;23.278;2023-04-24T09:12:40;10.55;;;4.88;;
6434;SDS011;3250;42.694;23.278;2023-04-24T09:15:06;17.40;;;5.40;;
6434;SDS011;3250;42.694;23.278;2023-04-24T09:17:33;10.20;;;4.90;;
6434;SDS011;3250;42.694;23.278;2023-04-24T09:19:59;18.67;;;4.75;;
6434;SDS011;3250;42.694;23.278;2023-04-24T09:22:24;13.68;;;5.75;;
6434;SDS011;3250;42.694;23.278;2023-04-24T09:24:59;7.80;;;4.53;;
6434;SDS011;3250;42.694;23.278;2023-04-24T09:27:28;6.65;;;4.28;;
6434;SDS011;3250;42.694;23.278;2023-04-24T09:29:54;9.50;;;4.68;;
6434;SDS011;3250;42.694;23.278;2023-04-24T09:32:21;7.57;;;4.28;;
6434;SDS011;3250;42.694;23.278;2023-04-24T09:34:47;6.45;;;3.90;;
6434;SDS011;3250;42.694;23.278;2023-04-24T09:37:29;7.80;;;4.90;;
6434;SDS011;3250;42.694;23.278;2023-04-24T09:42:53;7.25;;;4.85;;
6434;SDS011;3250;42.694;23.278;2023-04-24T09:45:20;7.35;;;4.72;;
6434;SDS011;3250;42.694;23.278;2023-04-24T09:47:46;6.10;;;4.35;;
6434;SDS011;3250;42.694;23.278;2023-04-24T09:50:16;10.70;;;4.72;;
6434;SDS011;3250;42.694;23.278;2023-04-24T09:52:46;13.55;;;4.53;;
6434;SDS011;3250;42.694;23.278;2023-04-24T09:55:21;6.22;;;4.32;;
6434;SDS011;3250;42.694;23.278;2023-04-24T09:57:50;9.82;;;4.78;;
6434;SDS011;3250;42.694;23.278;2023-04-24T10:00:30;4.72;;;3.95;;
6434;SDS011;3250;42.694;23.278;2023-04-24T10:03:00;8.05;;;4.00;;
6434;SDS011;3250;42.694;23.278;2023-04-24T10:08:00;6.13;;;3.80;;
6434;SDS011;3250;42.694;23.278;2023-04-24T10:10:30;9.50;;;4.20;;
6434;SDS011;3250;42.694;23.278;2023-04-24T10:12:57;5.82;;;3.70;;
6434;SDS011;3250;42.694;23.278;2023-04-24T10:15:22;16.27;;;4.15;;
6434;SDS011;3250;42.694;23.278;2023-04-24T10:17:50;6.22;;;3.63;;
6434;SDS011;3250;42.694;23.278;2023-04-24T10:20:23;6.10;;;3.55;;
6434;SDS011;3250;42.694;23.278;2023-04-24T10:22:51;5.93;;;3.72;;
6434;SDS011;3250;42.694;23.278;2023-04-24T10:25:18;7.22;;;3.92;;
6434;SDS011;3250;42.694;23.278;2023-04-24T10:27:45;7.82;;;4.32;;
6434;SDS011;3250;42.694;23.278;2023-04-24T10:30:12;6.78;;;3.65;;
6434;SDS011;3250;42.694;23.278;2023-04-24T10:32:38;5.82;;;3.20;;
6434;SDS011;3250;42.694;23.278;2023-04-24T10:35:06;5.72;;;3.58;;
6434;SDS011;3250;42.694;23.278;2023-04-24T10:40:31;7.47;;;3.90;;
6434;SDS011;3250;42.694;23.278;2023-04-24T10:42:58;7.80;;;4.00;;
6434;SDS011;3250;42.694;23.278;2023-04-24T10:45:24;10.85;;;3.80;;
6434;SDS011;3250;42.694;23.278;2023-04-24T10:47:51;13.82;;;4.43;;
6434;SDS011;3250;42.694;23.278;2023-04-24T10:50:27;10.63;;;4.57;;
6434;SDS011;3250;42.694;23.278;2023-04-24T10:53:04;5.18;;;3.70;;
6434;SDS011;3250;42.694;23.278;2023-04-24T10:55:41;6.93;;;3.85;;
6434;SDS011;3250;42.694;23.278;2023-04-24T10:58:08;6.95;;;3.65;;
6434;SDS011;3250;42.694;23.278;2023-04-24T11:00:36;6.43;;;3.60;;
6434;SDS011;3250;42.694;23.278;2023-04-24T11:03:04;6.47;;;3.10;;
6434;SDS011;3250;42.694;23.278;2023-04-24T11:05:50;5.97;;;3.03;;
6434;SDS011;3250;42.694;23.278;2023-04-24T11:11:03;10.00;;;3.00;;
6434;SDS011;3250;42.694;23.278;2023-04-24T11:16:29;4.70;;;3.38;;
6434;SDS011;3250;42.694;23.278;2023-04-24T11:21:40;13.18;;;4.53;;
6434;SDS011;3250;42.694;23.278;2023-04-24T11:27:06;5.45;;;3.58;;
6434;SDS011;3250;42.694;23.278;2023-04-24T11:29:49;7.75;;;4.35;;
6434;SDS011;3250;42.694;23.278;2023-04-24T11:34:52;4.10;;;3.38;;
6434;SDS011;3250;42.694;23.278;2023-04-24T11:37:23;3.97;;;3.45;;
6434;SDS011;3250;42.694;23.278;2023-04-24T11:39:51;8.38;;;3.35;;
6434;SDS011;3250;42.694;23.278;2023-04-24T11:42:18;4.60;;;3.78;;
6434;SDS011;3250;42.694;23.278;2023-04-24T11:44:46;4.05;;;3.40;;
6434;SDS011;3250;42.694;23.278;2023-04-24T11:47:12;3.92;;;3.33;;
6434;SDS011;3250;42.694;23.278;2023-04-24T11:49:38;3.78;;;3.13;;
6434;SDS011;3250;42.694;23.278;2023-04-24T11:52:04;5.22;;;3.03;;
6434;SDS011;3250;42.694;23.278;2023-04-24T11:54:30;6.88;;;3.53;;
6434;SDS011;3250;42.694;23.278;2023-04-24T11:56:56;4.95;;;3.03;;
6434;SDS011;3250;42.694;23.278;2023-04-24T11:59:22;3.72;;;2.95;;
6434;SDS011;3250;42.694;23.278;2023-04-24T12:01:48;6.82;;;3.45;;
6434;SDS011;3250;42.694;23.278;2023-04-24T12:04:15;5.40;;;3.17;;
6434;SDS011;3250;42.694;23.278;2023-04-24T12:09:26;3.75;;;3.30;;
6434;SDS011;3250;42.694;23.278;2023-04-24T12:11:55;5.60;;;2.72;;
6434;SDS011;3250;42.694;23.278;2023-04-24T12:14:24;5.88;;;3.50;;
6434;SDS011;3250;42.694;23.278;2023-04-24T12:16:50;3.55;;;3.00;;
6434;SDS011;3250;42.694;23.278;2023-04-24T12:19:22;3.63;;;3.22;;
6434;SDS011;3250;42.694;23.278;2023-04-24T12:22:06;3.63;;;3.33;;
6434;SDS011;3250;42.694;23.278;2023-04-24T12:24:32;6.00;;;3.50;;
6434;SDS011;3250;42.694;23.278;2023-04-24T12:26:58;4.18;;;3.20;;
6434;SDS011;3250;42.694;23.278;2023-04-24T12:29:23;6.93;;;3.60;;
6434;SDS011;3250;42.694;23.278;2023-04-24T12:31:50;4.40;;;3.15;;
6434;SDS011;3250;42.694;23.278;2023-04-24T12:34:19;5.35;;;3.25;;
6434;SDS011;3250;42.694;23.278;2023-04-24T12:36:46;3.20;;;2.90;;
6434;SDS011;3250;42.694;23.278;2023-04-24T12:39:18;3.97;;;2.95;;
6434;SDS011;3250;42.694;23.278;2023-04-24T12:41:53;4.18;;;2.88;;
6434;SDS011;3250;42.694;23.278;2023-04-24T12:44:31;4.97;;;3.13;;
6434;SDS011;3250;42.694;23.278;2023-04-24T12:46:59;4.13;;;3.20;;
6434;SDS011;3250;42.694;23.278;2023-04-24T12:49:29;4.93;;;3.17;;
6434;SDS011;3250;42.694;23.278;2023-04-24T12:51:55;3.08;;;2.88;;
6434;SDS011;3250;42.694;23.278;2023-04-24T12:54:21;4.65;;;2.92;;
6434;SDS011;3250;42.694;23.278;2023-04-24T12:56:47;3.40;;;3.03;;
6434;SDS011;3250;42.694;23.278;2023-04-24T12:59:12;4.60;;;3.50;;
6434;SDS011;3250;42.694;23.278;2023-04-24T13:01:37;3.75;;;3.40;;
6434;SDS011;3250;42.694;23.278;2023-04-24T13:04:03;4.13;;;3.58;;
6434;SDS011;3250;42.694;23.278;2023-04-24T13:06:28;6.07;;;3.55;;
6434;SDS011;3250;42.694;23.278;2023-04-24T13:08:54;5.90;;;3.47;;
6434;SDS011;3250;42.694;23.278;2023-04-24T13:11:20;4.00;;;3.10;;
6434;SDS011;3250;42.694;23.278;2023-04-24T13:13:47;4.20;;;3.30;;
6434;SDS011;3250;42.694;23.278;2023-04-24T13:16:12;3.50;;;3.03;;
6434;SDS011;3250;42.694;23.278;2023-04-24T13:18:38;3.25;;;2.95;;
6434;SDS011;3250;42.694;23.278;2023-04-24T13:21:03;5.90;;;3.25;;
6434;SDS011;3250;42.694;23.278;2023-04-24T13:23:29;3.20;;;2.78;;
6434;SDS011;3250;42.694;23.278;2023-04-24T13:25:54;5.13;;;2.90;;
6434;SDS011;3250;42.694;23.278;2023-04-24T13:28:22;3.47;;;2.90;;
6434;SDS011;3250;42.694;23.278;2023-04-24T13:30:48;9.77;;;3.15;;
6434;SDS011;3250;42.694;23.278;2023-04-24T13:33:14;5.63;;;2.75;;
6434;SDS011;3250;42.694;23.278;2023-04-24T13:35:39;5.90;;;3.58;;
6434;SDS011;3250;42.694;23.278;2023-04-24T13:38:05;4.32;;;3.00;;
6434;SDS011;3250;42.694;23.278;2023-04-24T13:40:31;7.20;;;2.80;;
6434;SDS011;3250;42.694;23.278;2023-04-24T13:42:57;4.80;;;2.88;;
6434;SDS011;3250;42.694;23.278;2023-04-24T13:45:22;4.60;;;3.28;;
6434;SDS011;3250;42.694;23.278;2023-04-24T13:47:48;3.63;;;3.25;;
6434;SDS011;3250;42.694;23.278;2023-04-24T13:50:13;8.73;;;6.70;;
6434;SDS011;3250;42.694;23.278;2023-04-24T13:52:40;12.63;;;11.35;;
6434;SDS011;3250;42.694;23.278;2023-04-24T13:55:06;14.77;;;13.35;;
6434;SDS011;3250;42.694;23.278;2023-04-24T13:57:31;9.85;;;8.77;;
6434;SDS011;3250;42.694;23.278;2023-04-24T13:59:57;6.85;;;5.63;;
6434;SDS011;3250;42.694;23.278;2023-04-24T14:02:26;6.10;;;3.10;;
6434;SDS011;3250;42.694;23.278;2023-04-24T14:04:52;4.13;;;3.15;;
6434;SDS011;3250;42.694;23.278;2023-04-24T14:07:17;4.07;;;2.90;;
6434;SDS011;3250;42.694;23.278;2023-04-24T14:09:43;7.57;;;3.08;;
6434;SDS011;3250;42.694;23.278;2023-04-24T14:12:08;4.30;;;2.40;;
6434;SDS011;3250;42.694;23.278;2023-04-24T14:14:36;7.10;;;3.28;;
6434;SDS011;3250;42.694;23.278;2023-04-24T14:17:01;3.67;;;2.92;;
6434;SDS011;3250;42.694;23.278;2023-04-24T14:19:27;3.08;;;2.40;;
6434;SDS011;3250;42.694;23.278;2023-04-24T14:21:52;5.05;;;2.50;;
6434;SDS011;3250;42.694;23.278;2023-04-24T14:24:20;6.07;;;3.38;;
6434;SDS011;3250;42.694;23.278;2023-04-24T14:26:45;4.95;;;2.80;;
6434;SDS011;3250;42.694;23.278;2023-04-24T14:29:11;3.22;;;2.50;;
6434;SDS011;3250;42.694;23.278;2023-04-24T14:31:36;5.97;;;3.08;;
6434;SDS011;3250;42.694;23.278;2023-04-24T14:34:02;4.07;;;3.25;;
6434;SDS011;3250;42.694;23.278;2023-04-24T14:36:27;7.80;;;3.67;;
6434;SDS011;3250;42.694;23.278;2023-04-24T14:38:53;4.55;;;3.40;;
6434;SDS011;3250;42.694;23.278;2023-04-24T14:41:18;6.65;;;2.88;;
6434;SDS011;3250;42.694;23.278;2023-04-24T14:43:43;8.48;;;3.40;;
6434;SDS011;3250;42.694;23.278;2023-04-24T14:46:09;5.22;;;2.80;;
6434;SDS011;3250;42.694;23.278;2023-04-24T14:48:34;3.88;;;2.80;;
6434;SDS011;3250;42.694;23.278;2023-04-24T14:51:00;5.25;;;3.30;;
6434;SDS011;3250;42.694;23.278;2023-04-24T14:53:25;6.18;;;3.33;;
6434;SDS011;3250;42.694;23.278;2023-04-24T14:55:51;2.85;;;2.50;;
6434;SDS011;3250;42.694;23.278;2023-04-24T14:58:16;13.07;;;3.28;;
6434;SDS011;3250;42.694;23.278;2023-04-24T15:00:42;5.47;;;3.17;;
6434;SDS011;3250;42.694;23.278;2023-04-24T15:03:07;6.05;;;3.05;;
6434;SDS011;3250;42.694;23.278;2023-04-24T15:05:34;7.45;;;2.85;;
6434;SDS011;3250;42.694;23.278;2023-04-24T15:08:00;3.58;;;3.10;;
6434;SDS011;3250;42.694;23.278;2023-04-24T15:10:25;3.93;;;2.83;;
6434;SDS011;3250;42.694;23.278;2023-04-24T15:12:51;7.65;;;3.17;;